Aérodrome :
LOGIN :

S'inscrire | Disclaimer

   EN    FR    IT 

 










Légende :    VFR   VFR Marginal   IFR   IFR Intensif   IFR Très Intensif
Visi : 
Plafond : 
>= 8 km
>= 3000ft
5 à 8 km
1000 à 3000 ft
1500m à 5 km
500 à 1000 ft
800 à 1500m
200 à 500 ft
< 800m
< 200 ft
Symboles :   Orages  Brouillard  Fortes neiges  Fortes précipitations  Vent > 20 kt
SIGMETs :   Divers  Orages  Givrage  Turbulence  Onde Orograph.  Cendres Volcan.







- Altitude de l'aérodrome : 297 ft
- Code IATA : UIP
- Voir les cartes d'approche


LFRQ - Quimper Pluguffan

DERNIER METAR :
  • 251530Z AUTO 09008KT 050V130 CAVOK 27/13 Q1022 NOSIG

METARs EXPIRÉS :
  • 251500Z AUTO 08007KT 010V140 CAVOK 26/13 Q1022 NOSIG
  • 251430Z AUTO 08007KT 040V140 CAVOK 26/13 Q1023 NOSIG
  • 251400Z AUTO 12008KT 070V160 CAVOK 26/12 Q1023 NOSIG
  • 251330Z AUTO 08008KT 040V120 CAVOK 26/12 Q1023 NOSIG
  • 251300Z AUTO 06009KT 020V090 CAVOK 25/13 Q1023 NOSIG

TAF TAF LFRQ
Valide du 25 à 12h jusqu'au 26 à 12h UTC


251100Z 2512/2612 08008KT CAVOK
Pas de NOTAMs connus pour ce terrain.



MET'MAP, la Météo Aéronautique d'un coup d'oeil ! - Copyright ORBIFLY Décembre 2007 - Disclaimer

ORBIFLY MET'MAP TEAM :

Programmation & Développement : Alexandra Zaïnal
Conception & Développement : Baudouin d'Aumeries
Co-Programmation & Développement : Marc-Olivier Méhu
Soutien technique & logistique : Manuel Goepfert

Contact : metmap@orbifly.com




SOURCES & CREDITS :

   NOAA